• Join FlightAware (Why Join?)
  • Login
  • US Flag GB Flag 
06:39 EDT


 

Airport Tracker/Info


-or-


 

Live Flight TrackerFlight Track Log ✈ DAL6234 ✈ 11-Apr-2013 ✈ KSYR - KLGA

Flight Track Log - Related Links

Times and Time Zones

All times are in EDT time to prevent confusion due to time zone crossing. See the DAL6234 flight status page for this flight to view local times or setup timezone preferences in your user account.

Time Position Orientation Groundspeed Altitude Reporting Facility
EDT Latitude Longitude Course Direction KTS MPH feet Rate Location/Type
18:56 43.1067 -76.0919 94° East 178 205 1,500  Level Boston Center
18:57 43.1042 -76.0406 94° East 181 208 3,800 2,460 Climbing Boston Center
18:58 43.0861 -76.0197 140° Southeast 202 232 4,600 1,680 Climbing Boston Center
18:58 43.0503 -75.9692 134° Southeast 231 266 5,800 1,800 Climbing Boston Center
18:59 42.9942 -75.8950 136° Southeast 260 299 7,800 1,980 Climbing Boston Center
19:00 42.9406 -75.8069 130° Southeast 285 328 9,800 1,500 Climbing Boston Center
19:02 42.8850 -75.7047 127° Southeast 316 364 10,900 1,260 Climbing Boston Center
19:03 42.8217 -75.5881 126° Southeast 355 409 12,400 1,440 Climbing Boston Center
19:04 42.7581 -75.4689 126° Southeast 376 433 13,900 1,560 Climbing Boston Center
19:04 42.6925 -75.3469 126° Southeast 389 448 15,500 1,800 Climbing Boston Center
19:05 42.6247 -75.2225 126° Southeast 403 464 17,500 1,860 Climbing Boston Center
19:06 42.5611 -75.0983 125° Southeast 403 464 19,300 1,200 Climbing Boston Center
19:08 42.4889 -74.9686 127° Southeast 409 471 20,000 300 Climbing Boston Center
19:09 42.4167 -74.8364 126° Southeast 421 484 20,000  Level Boston Center
19:10 42.3403 -74.6983 127° Southeast 433 498 20,000  Level Boston Center
19:10 42.2639 -74.5583 126° Southeast 451 519 20,000 -120 Level Boston Center
19:12 42.1872 -74.4211 127° Southeast 461 531 19,800 -900 Descending Boston Center
19:13 42.1083 -74.2758 126° Southeast 473 544 18,100 -840 Descending Boston Center
19:14 42.0294 -74.1142 123° Southeast 447 514 18,000 -240 Descending Boston Center
19:15 41.9625 -73.9842 125° Southeast 434 499 17,700 -840 Descending Boston Center
19:16 41.8994 -73.8653 125° Southeast 428 493 16,400 -1,440 Descending Boston Center
19:17 41.7856 -73.8211 164° South 393 452 14,900 -1,620 Descending Boston Center
19:18 41.6939 -73.8247 182° South 375 432 13,200 -1,560 Descending Boston Center
19:19 41.5833 -73.8500 190° South 352 405 11,800 -1,260 Descending New York TRACON
19:20 41.5000 -73.8667 189° South 298 343 10,700 -1,080 Descending New York TRACON
19:21 41.4167 -73.8667 180° South 288 331 9,700 -1,020 Descending New York TRACON
19:22 41.3500 -73.8000 143° Southeast 280 322 8,700 -900 Descending New York TRACON
19:23 41.3000 -73.7333 135° Southeast 277 319 8,000 -360 Descending New York TRACON
19:24 41.2833 -73.6500 105° East 266 306 8,000  Level New York TRACON
19:25 41.2667 -73.5667 105° East 238 274 8,000  Level New York TRACON
19:26 41.2167 -73.5333 153° Southeast 204 235 8,000 -600 Level New York TRACON
19:27 41.1667 -73.5667 207° Southwest 194 223 6,800 -1,320 Descending New York TRACON
19:28 41.1167 -73.6000 207° Southwest 184 212 5,400 -900 Descending New York TRACON
19:29 41.0667 -73.6333 207° Southwest 180 207 5,000 -240 Descending New York TRACON
19:30 41.0333 -73.6667 217° Southwest 181 208 5,000 -300 Level New York TRACON
19:31 40.9833 -73.7000 207° Southwest 170 196 4,500 -900 Descending New York TRACON
19:32 40.9500 -73.7333 217° Southwest 192 221 3,300 -1,140 Descending New York TRACON
19:33 40.9000 -73.7667 207° Southwest 172 198 2,300 -660 Descending New York TRACON
19:34 40.8667 -73.8000 217° Southwest 158 182 2,000 -600 Descending New York TRACON
19:35 40.8333 -73.8333 217° Southwest 144 166 1,200 -840 Descending New York TRACON
19:36 40.8000 -73.8667 217° Southwest 139 160 400 -840 Descending New York TRACON
19:38 40.7772 -73.8726 180° South  Level Estimated
19:45 40.7772 -73.8726 180° South  Level Estimated